TimePST,TemperatureF,Dew PointF,Humidity,Sea Level PressureIn,VisibilityMPH,Wind Direction,Wind SpeedMPH,Gust SpeedMPH,PrecipitationIn,Events,Conditions,WindDirDegrees,DateUTC
12:53 AM,41.0,39.0,93,29.75,10.0,North,6.9,-,N/A,,Overcast,350,2013-03-06 08:53:00
1:53 AM,42.1,39.0,89,29.73,10.0,North,5.8,-,N/A,,Overcast,350,2013-03-06 09:53:00
2:53 AM,42.1,37.9,85,29.71,10.0,North,8.1,-,N/A,,Overcast,350,2013-03-06 10:53:00
3:53 AM,42.1,37.9,85,29.68,10.0,NNW,9.2,-,N/A,,Overcast,340,2013-03-06 11:53:00
4:53 AM,41.0,37.9,89,29.66,10.0,North,9.2,-,N/A,,Overcast,350,2013-03-06 12:53:00
5:53 AM,41.0,37.9,89,29.65,10.0,North,12.7,18.4,N/A,,Overcast,360,2013-03-06 13:53:00
6:22 AM,41.0,37.4,87,29.64,10.0,North,8.1,-,N/A,,Overcast,350,2013-03-06 14:22:00
6:44 AM,41.0,37.4,87,29.64,10.0,North,8.1,-,N/A,,Overcast,350,2013-03-06 14:44:00
6:53 AM,41.0,37.9,89,29.64,10.0,North,6.9,16.1,N/A,,Overcast,350,2013-03-06 14:53:00
7:02 AM,41.0,37.4,87,29.64,10.0,Variable,6.9,-,N/A,,Overcast,0,2013-03-06 15:02:00
7:53 AM,41.0,37.9,89,29.63,10.0,NNW,9.2,-,N/A,,Overcast,340,2013-03-06 15:53:00
8:21 AM,41.0,37.4,87,29.64,10.0,NNW,8.1,16.1,N/A,,Overcast,340,2013-03-06 16:21:00
8:35 AM,42.8,37.4,81,29.64,10.0,North,8.1,-,N/A,,Overcast,350,2013-03-06 16:35:00
8:53 AM,42.1,37.9,85,29.64,10.0,North,10.4,19.6,N/A,,Overcast,350,2013-03-06 16:53:00
9:53 AM,42.1,39.0,89,29.65,8.0,NNW,5.8,-,0.00,Rain,Light Rain,330,2013-03-06 17:53:00
10:53 AM,41.0,39.0,93,29.65,6.0,Variable,4.6,-,0.00,Rain,Light Rain,0,2013-03-06 18:53:00
11:53 AM,41.0,39.0,93,29.67,8.0,NNW,4.6,-,0.00,Rain,Light Rain,330,2013-03-06 19:53:00
12:53 PM,41.0,39.0,93,29.68,6.0,Calm,Calm,-,0.00,Rain,Light Rain,0,2013-03-06 20:53:00
1:00 PM,42.8,39.2,87,29.68,5.0,Calm,Calm,-,0.00,Rain,Light Rain,0,2013-03-06 21:00:00
1:53 PM,41.0,39.0,93,29.69,9.0,Calm,Calm,-,0.00,Rain,Light Rain,0,2013-03-06 21:53:00
2:53 PM,42.1,39.9,92,29.71,8.0,Calm,Calm,-,0.00,Rain,Light Rain,0,2013-03-06 22:53:00
3:53 PM,41.0,39.9,96,29.72,7.0,Calm,Calm,-,0.00,Rain,Light Rain,0,2013-03-06 23:53:00
4:43 PM,41.0,39.2,93,29.74,6.0,SW,3.5,-,0.00,Rain,Light Rain,230,2013-03-07 00:43:00
4:53 PM,39.9,39.0,97,29.74,6.0,Calm,Calm,-,0.00,Rain,Light Rain,0,2013-03-07 00:53:00
5:53 PM,39.9,39.0,97,29.75,9.0,Calm,Calm,-,0.00,Rain,Light Rain,0,2013-03-07 01:53:00
6:53 PM,39.0,39.0,100,29.78,10.0,Calm,Calm,-,0.00,Rain,Light Rain,0,2013-03-07 02:53:00
7:04 PM,39.2,39.2,100,29.78,10.0,Calm,Calm,-,0.00,Rain,Light Rain,0,2013-03-07 03:04:00
7:09 PM,39.2,39.2,100,29.78,10.0,SSW,3.5,-,0.00,Rain,Light Rain,210,2013-03-07 03:09:00
7:33 PM,39.2,39.2,100,29.79,10.0,SSW,4.6,-,0.00,Rain,Light Rain,210,2013-03-07 03:33:00
7:53 PM,39.9,39.9,100,29.80,9.0,SSW,4.6,-,0.00,Rain,Light Rain,210,2013-03-07 03:53:00
8:32 PM,39.2,39.2,100,29.82,9.0,SSW,3.5,-,0.00,Rain,Light Rain,200,2013-03-07 04:32:00
8:53 PM,39.9,39.0,97,29.83,10.0,South,4.6,-,0.00,Rain,Light Rain,190,2013-03-07 04:53:00
9:53 PM,39.0,39.0,100,29.85,10.0,South,3.5,-,0.00,Rain,Light Rain,180,2013-03-07 05:53:00
10:53 PM,39.0,39.0,100,29.88,10.0,South,3.5,-,0.00,Rain,Light Rain,180,2013-03-07 06:53:00
11:53 PM,39.0,39.0,100,29.89,10.0,Calm,Calm,-,0.00,Rain,Light Rain,0,2013-03-07 07:53:00